Chrisman, Illinois
Current Conditions -  °F | °C
As of 1:15 AM on Saturday 25 Oct 2014 (Local Time) from KPRG Reporting Station
Overcast Overcast  
Wind Chill: 58°   Ceiling: 4100
Heat Index: 58°   Visibility: 10mi
Dew Point: 54°   Wind: 8mph
Humidity: 87%   Direction: 210°SSW
Pressure: 29.99"   Gusts: NA
Location:  39.8°N, 87.67°W
Report Text: KPRG 250615Z AUTO 21007KT 10SM OVC041 15/12 A2999 RMK AO2 T01460124
Loading
Personal Weather Stations






























Interactive Weather Map
Tropical Storm Tracking
New forecast layout! Learn more

10-Day Weather Forecast

Advertisements
Track Severe Weather on mobile